createdAt,value
2019-01-20T00:02:17.170Z,21.83
2019-01-20T00:04:55.161Z,17.90
2019-01-20T00:07:24.092Z,20.80
2019-01-20T00:09:52.996Z,21.73
2019-01-20T00:12:21.852Z,23.13
2019-01-20T00:15:00.885Z,19.57
2019-01-20T00:17:29.569Z,19.03
2019-01-20T00:19:58.302Z,23.77
2019-01-20T00:22:27.260Z,26.10
2019-01-20T00:27:40.301Z,21.90
2019-01-20T00:30:10.004Z,24.23
2019-01-20T00:32:38.934Z,21.70
2019-01-20T00:35:18.011Z,19.27
2019-01-20T00:37:46.877Z,19.43
2019-01-20T00:40:16.152Z,21.77
2019-01-20T00:42:44.874Z,18.77
2019-01-20T00:45:23.614Z,22.63
2019-01-20T00:47:52.378Z,23.53
2019-01-20T00:50:21.161Z,19.33
2019-01-20T00:52:50.452Z,17.13
2019-01-20T00:58:02.554Z,17.37
2019-01-20T01:00:32.472Z,20.20
2019-01-20T01:03:02.610Z,19.07
2019-01-20T01:05:42.047Z,30.63
2019-01-20T01:08:11.177Z,21.23
2019-01-20T01:10:40.187Z,20.73
2019-01-20T01:13:09.283Z,20.50
2019-01-20T01:15:48.221Z,18.53
2019-01-20T01:18:17.186Z,18.23
2019-01-20T01:20:46.625Z,19.20
2019-01-20T01:23:15.437Z,19.83
2019-01-20T01:25:53.126Z,19.53
2019-01-20T01:28:21.829Z,20.77
2019-01-20T01:30:50.527Z,20.40
2019-01-20T01:33:19.221Z,20.90
2019-01-20T01:35:57.353Z,15.07
2019-01-20T01:38:26.074Z,22.20
2019-01-20T01:40:54.992Z,21.10
2019-01-20T01:43:23.736Z,20.77
2019-01-20T01:46:01.597Z,18.13
2019-01-20T01:48:30.305Z,23.90
2019-01-20T01:50:59.388Z,18.57
2019-01-20T01:53:28.074Z,19.07
2019-01-20T01:56:05.742Z,23.03
2019-01-20T01:58:34.508Z,20.70
2019-01-20T02:01:05.094Z,17.43
2019-01-20T02:03:33.775Z,21.47
2019-01-20T02:06:11.647Z,20.33
2019-01-20T02:08:40.403Z,20.97
2019-01-20T02:11:09.229Z,21.33
2019-01-20T02:13:49.905Z,21.40
2019-01-20T02:16:18.652Z,24.00
2019-01-20T02:18:47.511Z,22.83
2019-01-20T02:21:31.218Z,24.67
2019-01-20T02:24:00.041Z,21.53
2019-01-20T02:26:28.859Z,20.93
2019-01-20T02:28:57.681Z,19.07
2019-01-20T02:31:35.734Z,23.30
2019-01-20T02:34:04.496Z,23.17
2019-01-20T02:36:33.265Z,21.37
2019-01-20T02:39:02.130Z,23.43
2019-01-20T02:41:39.848Z,23.57
2019-01-20T02:44:08.562Z,21.33
2019-01-20T02:46:37.434Z,19.37
2019-01-20T02:49:06.208Z,23.40
2019-01-20T02:51:35.023Z,22.33
2019-01-20T02:54:03.834Z,20.97
2019-01-20T02:56:32.522Z,21.97
2019-01-20T02:59:01.232Z,21.20
2019-01-20T03:01:45.123Z,22.37
2019-01-20T03:04:13.816Z,19.37
2019-01-20T03:06:42.838Z,21.30
2019-01-20T03:09:11.586Z,25.07
2019-01-20T03:11:52.385Z,19.97
2019-01-20T03:14:21.126Z,22.40
2019-01-20T03:16:49.815Z,23.43
2019-01-20T03:19:18.641Z,24.90
2019-01-20T03:21:59.725Z,22.23
2019-01-20T03:24:28.405Z,21.27
2019-01-20T03:26:57.373Z,21.87
2019-01-20T03:29:26.296Z,24.30
2019-01-20T03:32:04.175Z,19.83
2019-01-20T03:34:32.951Z,22.57
2019-01-20T03:37:01.749Z,20.40
2019-01-20T03:39:30.434Z,20.13
2019-01-20T03:42:12.173Z,25.20
2019-01-20T03:44:38.880Z,20.40
2019-01-20T03:47:08.870Z,19.67
2019-01-20T03:49:37.833Z,20.10
2019-01-20T03:52:06.617Z,26.87
2019-01-20T03:54:35.315Z,19.93
2019-01-20T03:57:04.241Z,25.47
2019-01-20T03:59:33.133Z,19.63
2019-01-20T04:02:10.747Z,23.53
2019-01-20T04:04:39.458Z,19.37
2019-01-20T04:07:08.265Z,25.40
2019-01-20T04:09:37.049Z,21.93
2019-01-20T04:12:20.521Z,20.77
2019-01-20T04:14:45.251Z,18.87
2019-01-20T04:17:14.017Z,21.17
2019-01-20T04:19:42.750Z,20.00
2019-01-20T04:22:20.533Z,24.53
2019-01-20T04:24:49.233Z,26.17
2019-01-20T04:27:18.158Z,24.40
2019-01-20T04:29:47.079Z,22.70
2019-01-20T04:34:59.106Z,18.17
2019-01-20T04:37:27.987Z,27.43
2019-01-20T04:39:56.681Z,24.07
2019-01-20T04:42:34.856Z,23.77
2019-01-20T04:45:03.905Z,21.70
2019-01-20T04:47:32.686Z,22.30
2019-01-20T04:50:01.408Z,22.43
2019-01-20T04:52:30.296Z,18.23
2019-01-20T04:54:59.118Z,24.70
2019-01-20T04:57:27.992Z,18.23
2019-01-20T04:59:56.723Z,24.90
2019-01-20T05:05:09.329Z,23.93
2019-01-20T05:07:38.077Z,21.80
2019-01-20T05:10:08.334Z,24.90
2019-01-20T05:12:46.234Z,22.90
2019-01-20T05:15:20.175Z,19.97
2019-01-20T05:17:48.946Z,19.67
2019-01-20T05:20:17.986Z,19.80
2019-01-20T05:22:55.943Z,23.93
2019-01-20T05:25:27.123Z,22.87
2019-01-20T05:27:56.225Z,24.80
2019-01-20T05:30:27.784Z,23.10
2019-01-20T05:33:05.335Z,22.10
2019-01-20T05:35:34.225Z,20.87
2019-01-20T05:38:02.969Z,22.37
2019-01-20T05:40:32.543Z,27.47
2019-01-20T05:43:10.194Z,23.63
2019-01-20T05:45:39.033Z,26.53
2019-01-20T05:48:07.982Z,22.90
2019-01-20T05:50:36.802Z,21.60
2019-01-20T05:53:15.266Z,24.10
2019-01-20T05:55:44.208Z,22.73
2019-01-20T05:58:13.135Z,21.67
2019-01-20T06:00:41.862Z,20.47
2019-01-20T06:03:20.050Z,20.70
2019-01-20T06:05:48.894Z,26.83
2019-01-20T06:08:17.621Z,22.93
2019-01-20T06:10:46.506Z,24.67
2019-01-20T06:13:24.399Z,22.33
2019-01-20T06:15:53.258Z,21.07
2019-01-20T06:18:22.082Z,21.47
2019-01-20T06:20:52.680Z,25.80
2019-01-20T06:23:31.421Z,22.90
2019-01-20T06:26:00.874Z,21.27
2019-01-20T06:28:30.045Z,21.37
2019-01-20T06:30:59.115Z,19.80
2019-01-20T06:33:37.228Z,23.83
2019-01-20T06:36:06.457Z,21.77
2019-01-20T06:38:35.297Z,20.17
2019-01-20T06:41:04.042Z,21.80
2019-01-20T06:43:42.008Z,26.70
2019-01-20T06:46:10.749Z,18.77
2019-01-20T06:48:39.969Z,21.23
2019-01-20T06:51:08.693Z,25.10
2019-01-20T06:53:46.351Z,25.33
2019-01-20T06:56:15.145Z,22.30
2019-01-20T06:58:44.006Z,22.83
2019-01-20T07:01:13.018Z,25.57
2019-01-20T07:03:51.151Z,23.87
2019-01-20T07:06:19.847Z,25.73
2019-01-20T07:08:49.481Z,26.30
2019-01-20T07:11:18.594Z,25.33
2019-01-20T07:16:30.855Z,33.67
2019-01-20T07:19:00.086Z,25.67
2019-01-20T07:21:28.966Z,30.27
2019-01-20T07:24:06.763Z,33.97
2019-01-20T07:26:35.551Z,28.93
2019-01-20T07:29:04.308Z,30.03
2019-01-20T07:31:33.271Z,29.77
2019-01-20T07:34:11.172Z,28.90
2019-01-20T07:36:40.204Z,29.03
2019-01-20T07:39:08.911Z,27.87
2019-01-20T07:41:37.667Z,24.47
2019-01-20T07:44:15.341Z,28.60
2019-01-20T07:46:44.295Z,32.10
2019-01-20T07:49:13.253Z,29.77
2019-01-20T07:51:42.369Z,26.40
2019-01-20T07:54:20.156Z,31.57
2019-01-20T07:56:48.965Z,25.47
2019-01-20T07:59:18.015Z,28.00
2019-01-20T08:01:48.062Z,28.73
2019-01-20T08:04:26.094Z,26.70
2019-01-20T08:06:54.941Z,25.63
2019-01-20T08:09:23.961Z,22.33
2019-01-20T08:11:52.757Z,25.97
2019-01-20T08:17:04.982Z,23.67
2019-01-20T08:19:33.830Z,23.67
2019-01-20T08:22:03.100Z,24.07
2019-01-20T08:24:43.464Z,27.73
2019-01-20T08:27:12.425Z,30.27
2019-01-20T08:29:41.639Z,25.77
2019-01-20T08:32:10.500Z,25.30
2019-01-20T08:34:48.688Z,23.57
2019-01-20T08:37:17.559Z,23.67
2019-01-20T08:39:46.401Z,24.43
2019-01-20T08:42:15.322Z,20.60
2019-01-20T08:44:54.441Z,24.47
2019-01-20T08:47:33.393Z,24.03
2019-01-20T08:50:02.386Z,24.07
2019-01-20T08:52:31.682Z,25.03
2019-01-20T08:57:44.846Z,27.20
2019-01-20T09:00:16.589Z,24.97
2019-01-20T09:02:45.676Z,23.00
2019-01-20T09:05:23.747Z,24.03
2019-01-20T09:07:52.569Z,24.27
2019-01-20T09:10:24.121Z,22.53
2019-01-20T09:13:10.473Z,22.27
2019-01-20T09:15:39.224Z,24.47
2019-01-20T09:18:08.464Z,22.90
2019-01-20T09:20:37.306Z,21.10
2019-01-20T09:23:14.931Z,25.73
2019-01-20T09:25:43.673Z,27.10
2019-01-20T09:28:12.644Z,25.87
2019-01-20T09:30:41.355Z,24.63
2019-01-20T09:33:24.633Z,23.80
2019-01-20T09:35:52.781Z,22.87
2019-01-20T09:38:21.589Z,24.10
2019-01-20T09:40:50.370Z,23.27
2019-01-20T09:43:28.361Z,21.17
2019-01-20T09:45:57.130Z,21.27
2019-01-20T09:48:26.022Z,22.77
2019-01-20T09:50:54.911Z,23.20
2019-01-20T09:53:32.766Z,20.73
2019-01-20T09:56:03.412Z,27.23
2019-01-20T09:58:32.619Z,20.17
2019-01-20T10:01:01.468Z,22.03
2019-01-20T10:06:13.442Z,21.87
2019-01-20T10:08:42.150Z,22.97
2019-01-20T10:11:11.029Z,21.27
2019-01-20T10:13:54.774Z,24.23
2019-01-20T10:16:19.532Z,22.50
2019-01-20T10:18:48.670Z,22.10
2019-01-20T10:21:17.715Z,23.20
2019-01-20T10:23:55.368Z,22.90
2019-01-20T10:26:26.711Z,24.47
2019-01-20T10:28:58.681Z,25.67
2019-01-20T10:31:27.386Z,25.53
2019-01-20T10:34:04.890Z,23.30
2019-01-20T10:36:33.917Z,21.63
2019-01-20T10:39:04.578Z,23.03
2019-01-20T10:41:33.829Z,25.33
2019-01-20T10:44:15.088Z,22.63
2019-01-20T10:46:43.881Z,21.23
2019-01-20T10:49:12.847Z,24.80
2019-01-20T10:51:41.572Z,24.00
2019-01-20T10:54:19.722Z,28.73
2019-01-20T10:56:48.615Z,21.60
2019-01-20T10:59:17.527Z,23.10
2019-01-20T11:01:46.487Z,23.03
2019-01-20T11:04:27.469Z,27.33
2019-01-20T11:06:56.362Z,22.53
2019-01-20T11:09:25.235Z,22.50
2019-01-20T11:11:54.064Z,21.47
2019-01-20T11:14:34.313Z,23.03
2019-01-20T11:17:03.301Z,20.73
2019-01-20T11:19:32.694Z,24.57
2019-01-20T11:22:01.682Z,25.13
2019-01-20T11:24:39.320Z,20.13
2019-01-20T11:27:08.734Z,24.57
2019-01-20T11:29:37.888Z,22.43
2019-01-20T11:32:07.126Z,23.27
2019-01-20T11:34:45.564Z,21.47
2019-01-20T11:37:14.534Z,26.90
2019-01-20T11:39:45.949Z,23.60
2019-01-20T11:42:14.957Z,22.43
2019-01-20T11:44:54.104Z,22.33
2019-01-20T11:47:23.058Z,23.10
2019-01-20T11:49:51.993Z,22.57
2019-01-20T11:52:20.939Z,25.40
2019-01-20T11:54:58.833Z,21.87
2019-01-20T11:57:27.963Z,22.40
2019-01-20T11:59:56.850Z,23.57
2019-01-20T12:02:25.846Z,22.60
2019-01-20T12:05:07.195Z,23.63
2019-01-20T12:07:36.041Z,27.63
2019-01-20T12:10:06.485Z,21.80
2019-01-20T12:12:35.912Z,23.00
2019-01-20T12:15:14.431Z,21.37
2019-01-20T12:17:44.519Z,23.83
2019-01-20T12:20:13.786Z,24.63
2019-01-20T12:22:42.783Z,33.13
2019-01-20T12:25:21.342Z,23.63
2019-01-20T12:27:50.259Z,23.93
2019-01-20T12:30:21.379Z,25.03
2019-01-20T12:32:50.952Z,23.57
2019-01-20T12:35:28.991Z,22.90
2019-01-20T12:37:57.848Z,23.77
2019-01-20T12:40:29.632Z,28.00
2019-01-20T12:42:58.998Z,24.13
2019-01-20T12:45:37.565Z,24.10
2019-01-20T12:48:06.428Z,26.40
2019-01-20T12:50:35.726Z,25.33
2019-01-20T12:53:04.854Z,26.57
2019-01-20T12:55:42.561Z,21.03
2019-01-20T12:58:11.298Z,23.60
2019-01-20T13:00:40.640Z,24.77
2019-01-20T13:03:12.859Z,27.27
2019-01-20T13:05:51.408Z,22.27
2019-01-20T13:08:20.201Z,23.17
2019-01-20T13:10:49.643Z,23.57
2019-01-20T13:13:19.966Z,26.67
2019-01-20T13:15:58.130Z,30.40
2019-01-20T13:18:26.920Z,25.70
2019-01-20T13:20:56.132Z,25.33
2019-01-20T13:23:25.421Z,28.17
2019-01-20T13:26:04.261Z,26.40
2019-01-20T13:28:36.301Z,24.63
2019-01-20T13:31:05.104Z,22.50
2019-01-20T13:33:34.240Z,26.17
2019-01-20T13:36:13.338Z,24.23
2019-01-20T13:38:42.624Z,23.97
2019-01-20T13:41:27.124Z,24.40
2019-01-20T13:43:57.334Z,25.37
2019-01-20T13:49:13.659Z,27.17
2019-01-20T13:51:43.396Z,23.30
2019-01-20T13:54:12.743Z,28.63
2019-01-20T13:56:51.198Z,24.43
2019-01-20T13:59:20.358Z,24.13
2019-01-20T14:01:49.619Z,25.80
2019-01-20T14:04:18.958Z,22.80
2019-01-20T14:06:56.656Z,26.10
2019-01-20T14:09:25.582Z,22.63
2019-01-20T14:11:54.742Z,27.17
2019-01-20T14:14:23.624Z,25.03
2019-01-20T14:17:01.765Z,26.07
2019-01-20T14:19:30.866Z,23.63
2019-01-20T14:21:59.749Z,27.30
2019-01-20T14:24:28.502Z,23.23
2019-01-20T14:26:57.282Z,27.13
2019-01-20T14:29:26.280Z,22.97
2019-01-20T14:31:55.353Z,25.67
2019-01-20T14:34:24.392Z,25.20
2019-01-20T14:37:02.616Z,29.30
2019-01-20T14:39:31.514Z,27.07
2019-01-20T14:42:00.587Z,24.10
2019-01-20T14:44:29.628Z,25.97
2019-01-20T14:46:58.436Z,25.37
2019-01-20T14:49:28.129Z,25.10
2019-01-20T14:51:56.990Z,25.50
2019-01-20T14:54:26.174Z,24.23
2019-01-20T14:57:04.301Z,25.97
2019-01-20T14:59:36.304Z,27.20
2019-01-20T15:02:06.339Z,26.60
2019-01-20T15:04:35.156Z,28.27
2019-01-20T15:09:48.823Z,25.83
2019-01-20T15:12:19.907Z,28.67
2019-01-20T15:14:49.253Z,26.73
2019-01-20T15:17:27.177Z,28.07
2019-01-20T15:19:56.069Z,28.00
2019-01-20T15:22:24.982Z,28.13
2019-01-20T15:24:54.208Z,25.77
2019-01-20T15:27:33.638Z,28.93
2019-01-20T15:30:04.696Z,28.33
2019-01-20T15:32:34.313Z,29.20
2019-01-20T15:35:03.562Z,26.33
2019-01-20T15:37:32.618Z,30.57
2019-01-20T15:40:01.320Z,29.67
2019-01-20T15:42:32.421Z,29.43
2019-01-20T15:45:01.241Z,28.33
2019-01-20T15:50:06.491Z,32.43
2019-01-20T15:52:35.288Z,33.20
2019-01-20T15:55:04.031Z,29.27
2019-01-20T15:57:32.992Z,32.27
2019-01-20T16:00:02.011Z,29.10
2019-01-20T16:02:30.920Z,32.47
2019-01-20T16:05:00.100Z,30.30
2019-01-20T16:07:38.162Z,30.93
2019-01-20T16:10:08.185Z,31.67
2019-01-20T16:12:37.701Z,32.50
2019-01-20T16:15:13.381Z,27.67
2019-01-20T16:17:53.398Z,28.63
2019-01-20T16:20:23.333Z,34.13
2019-01-20T16:22:52.084Z,31.93
2019-01-20T16:25:22.867Z,34.33
2019-01-20T16:28:02.176Z,31.77
2019-01-20T16:30:33.165Z,32.33
2019-01-20T16:33:02.017Z,30.23
2019-01-20T16:35:31.625Z,28.73
2019-01-20T16:38:10.993Z,29.47
2019-01-20T16:40:40.372Z,31.23
2019-01-20T16:43:09.580Z,32.93
2019-01-20T16:45:42.588Z,30.77
2019-01-20T16:48:20.870Z,30.53
2019-01-20T16:50:50.047Z,33.73
2019-01-20T16:53:18.960Z,31.83
2019-01-20T16:55:47.813Z,34.50
2019-01-20T16:58:28.031Z,33.20
2019-01-20T17:00:56.876Z,31.27
2019-01-20T17:03:25.718Z,37.93
2019-01-20T17:05:54.552Z,36.13
2019-01-20T17:08:33.452Z,32.37
2019-01-20T17:11:05.106Z,32.03
2019-01-20T17:13:34.175Z,26.80
2019-01-20T17:16:02.960Z,36.07
2019-01-20T17:18:40.847Z,32.30
2019-01-20T17:21:12.143Z,31.47
2019-01-20T17:23:41.121Z,31.30
2019-01-20T17:26:10.393Z,29.30
2019-01-20T17:28:48.610Z,31.73
2019-01-20T17:31:18.970Z,34.03
2019-01-20T17:33:48.044Z,36.87
2019-01-20T17:36:17.126Z,32.43
2019-01-20T17:38:46.056Z,34.03
2019-01-20T17:41:15.011Z,35.17
2019-01-20T17:43:43.898Z,32.17
2019-01-20T17:46:13.301Z,36.30
2019-01-20T17:48:51.134Z,32.27
2019-01-20T17:51:20.396Z,32.47
2019-01-20T17:53:49.567Z,40.17
2019-01-20T17:56:18.693Z,31.00
2019-01-20T17:58:57.120Z,31.97
2019-01-20T18:01:27.599Z,30.43
2019-01-20T18:03:57.492Z,29.50
2019-01-20T18:06:26.810Z,30.87
2019-01-20T18:09:09.449Z,30.53
2019-01-20T18:11:38.681Z,28.23
2019-01-20T18:14:08.346Z,30.23
2019-01-20T18:16:37.478Z,30.03
2019-01-20T18:19:15.808Z,28.47
2019-01-20T18:21:45.126Z,30.47
2019-01-20T18:24:14.090Z,28.20
2019-01-20T18:26:42.935Z,26.93
2019-01-20T18:29:21.318Z,29.03
2019-01-20T18:31:50.673Z,25.17
2019-01-20T18:34:20.028Z,30.80
2019-01-20T18:36:49.326Z,27.87
2019-01-20T18:39:27.397Z,26.83
2019-01-20T18:41:57.668Z,30.60
2019-01-20T18:44:29.381Z,25.70
2019-01-20T18:46:58.152Z,27.40
2019-01-20T18:49:36.559Z,25.43
2019-01-20T18:52:06.387Z,28.50
2019-01-20T18:54:35.211Z,25.40
2019-01-20T18:57:04.413Z,25.40
2019-01-20T18:59:42.589Z,25.10
2019-01-20T19:02:11.361Z,30.07
2019-01-20T19:04:40.122Z,25.83
2019-01-20T19:07:09.603Z,31.07
2019-01-20T19:09:47.705Z,25.63
2019-01-20T19:12:16.609Z,29.13
2019-01-20T19:14:45.537Z,30.23
2019-01-20T19:17:14.245Z,31.97
2019-01-20T19:19:43.061Z,27.47
2019-01-20T19:22:11.722Z,29.40
2019-01-20T19:24:40.591Z,30.33
2019-01-20T19:27:11.262Z,27.10
2019-01-20T19:29:49.369Z,26.00
2019-01-20T19:32:18.096Z,28.10
2019-01-20T19:34:47.402Z,25.80
2019-01-20T19:37:16.690Z,28.30
2019-01-20T19:39:54.554Z,27.90
2019-01-20T19:42:23.537Z,27.67
2019-01-20T19:44:52.314Z,27.33
2019-01-20T19:47:21.033Z,27.60
2019-01-20T19:49:59.011Z,30.80
2019-01-20T19:52:28.037Z,27.77
2019-01-20T19:54:59.584Z,28.43
2019-01-20T19:57:28.518Z,30.57
2019-01-20T20:00:09.255Z,27.53
2019-01-20T20:02:38.056Z,32.33
2019-01-20T20:05:10.440Z,28.73
2019-01-20T20:07:39.568Z,29.07
2019-01-20T20:12:54.867Z,29.47
2019-01-20T20:15:24.893Z,26.37
2019-01-20T20:17:53.788Z,27.40
2019-01-20T20:20:22.840Z,32.10
2019-01-20T20:22:51.630Z,26.97
2019-01-20T20:25:21.125Z,27.37
2019-01-20T20:27:49.954Z,29.60
2019-01-20T20:30:30.026Z,32.63
2019-01-20T20:32:58.924Z,24.37
2019-01-20T20:35:27.853Z,25.57
2019-01-20T20:37:57.036Z,28.17
2019-01-20T20:40:26.447Z,24.40
2019-01-20T20:42:58.564Z,27.60
2019-01-20T20:45:27.339Z,29.67
2019-01-20T20:47:59.530Z,26.93
2019-01-20T20:50:37.683Z,29.83
2019-01-20T20:53:06.805Z,27.10
2019-01-20T20:55:35.510Z,33.07
2019-01-20T20:58:19.232Z,32.67
2019-01-20T21:00:50.461Z,26.23
2019-01-20T21:03:28.334Z,28.50
2019-01-20T21:05:57.501Z,28.43
2019-01-20T21:08:35.462Z,29.63
2019-01-20T21:11:04.747Z,29.80
2019-01-20T21:13:33.838Z,37.07
2019-01-20T21:16:02.981Z,38.67
2019-01-20T21:18:41.771Z,27.57
2019-01-20T21:21:10.701Z,26.17
2019-01-20T21:23:39.748Z,29.00
2019-01-20T21:26:08.534Z,28.53
2019-01-20T21:28:46.489Z,28.73
2019-01-20T21:31:15.229Z,29.40
2019-01-20T21:33:43.949Z,27.43
2019-01-20T21:36:12.768Z,24.33
2019-01-20T21:38:50.302Z,26.20
2019-01-20T21:41:19.193Z,25.60
2019-01-20T21:43:48.080Z,24.00
2019-01-20T21:46:18.258Z,23.93
2019-01-20T21:48:56.002Z,23.37
2019-01-20T21:51:25.119Z,21.83
2019-01-20T21:53:54.504Z,22.87
2019-01-20T21:56:24.494Z,20.80
2019-01-20T21:59:07.636Z,23.00
2019-01-20T22:01:36.755Z,24.23
2019-01-20T22:04:05.541Z,21.93
2019-01-20T22:06:34.374Z,25.93
2019-01-20T22:09:12.420Z,26.90
2019-01-20T22:11:41.219Z,24.53
2019-01-20T22:14:10.005Z,25.40
2019-01-20T22:16:38.917Z,24.10
2019-01-20T22:19:16.680Z,25.07
2019-01-20T22:21:45.373Z,24.23
2019-01-20T22:24:15.058Z,22.43
2019-01-20T22:26:43.916Z,21.30
2019-01-20T22:29:21.691Z,23.80
2019-01-20T22:31:50.901Z,24.83
2019-01-20T22:34:19.851Z,21.23
2019-01-20T22:36:48.772Z,25.03
2019-01-20T22:39:26.730Z,23.97
2019-01-20T22:41:55.526Z,25.63
2019-01-20T22:44:24.446Z,22.60
2019-01-20T22:46:59.869Z,24.03
2019-01-20T22:49:32.761Z,24.00
2019-01-20T22:52:01.573Z,24.10
2019-01-20T22:54:30.262Z,23.80
2019-01-20T22:56:59.240Z,25.47
2019-01-20T22:59:37.109Z,24.50
2019-01-20T23:02:05.836Z,25.87
2019-01-20T23:04:34.613Z,28.27
2019-01-20T23:07:03.765Z,27.90
2019-01-20T23:09:44.957Z,27.00
2019-01-20T23:12:13.951Z,26.27
2019-01-20T23:14:42.849Z,33.17
2019-01-20T23:17:11.643Z,29.70
2019-01-20T23:22:25.738Z,27.87
2019-01-20T23:24:54.593Z,29.20
2019-01-20T23:27:23.623Z,28.17
2019-01-20T23:30:01.198Z,29.53
2019-01-20T23:32:33.006Z,28.27
2019-01-20T23:35:01.868Z,32.87
2019-01-20T23:37:30.543Z,30.37
2019-01-20T23:40:09.062Z,30.27
2019-01-20T23:42:38.136Z,25.77
2019-01-20T23:45:08.183Z,31.30
2019-01-20T23:47:36.985Z,30.03
2019-01-20T23:50:14.740Z,31.13
2019-01-20T23:52:43.708Z,30.93
2019-01-20T23:55:12.520Z,34.53
2019-01-20T23:57:41.233Z,31.03
